sensor_id;sensor_type;location;lat;lon;timestamp;pressure;altitude;pressure_sealevel;temperature;humidity
13314;BME280;6725;48.112;11.604;2022-11-15T00:01:45;94505.53;;;4.67;100.00
13314;BME280;6725;48.112;11.604;2022-11-15T00:04:10;94530.63;;;4.64;100.00
13314;BME280;6725;48.112;11.604;2022-11-15T00:06:35;94547.63;;;4.61;100.00
13314;BME280;6725;48.112;11.604;2022-11-15T00:09:01;94559.19;;;4.58;100.00
13314;BME280;6725;48.112;11.604;2022-11-15T00:11:27;94582.38;;;4.52;100.00
13314;BME280;6725;48.112;11.604;2022-11-15T00:13:56;94593.16;;;4.48;100.00
13314;BME280;6725;48.112;11.604;2022-11-15T00:16:22;94602.84;;;4.42;100.00
13314;BME280;6725;48.112;11.604;2022-11-15T00:18:48;94600.88;;;4.43;100.00
13314;BME280;6725;48.112;11.604;2022-11-15T00:21:15;94610.16;;;4.42;100.00
13314;BME280;6725;48.112;11.604;2022-11-15T00:23:40;94618.66;;;4.37;100.00
13314;BME280;6725;48.112;11.604;2022-11-15T00:26:07;94619.00;;;4.32;100.00
13314;BME280;6725;48.112;11.604;2022-11-15T00:28:32;94620.16;;;4.27;100.00
13314;BME280;6725;48.112;11.604;2022-11-15T00:31:02;94629.78;;;4.25;100.00
13314;BME280;6725;48.112;11.604;2022-11-15T00:33:28;94634.78;;;4.19;100.00
13314;BME280;6725;48.112;11.604;2022-11-15T00:35:53;94616.28;;;4.18;100.00
13314;BME280;6725;48.112;11.604;2022-11-15T00:38:24;94622.44;;;4.15;100.00
13314;BME280;6725;48.112;11.604;2022-11-15T00:40:49;94630.16;;;4.13;100.00
13314;BME280;6725;48.112;11.604;2022-11-15T00:43:14;94634.75;;;4.05;100.00
13314;BME280;6725;48.112;11.604;2022-11-15T00:45:39;94626.25;;;4.00;100.00
13314;BME280;6725;48.112;11.604;2022-11-15T00:48:05;94636.25;;;3.96;100.00
13314;BME280;6725;48.112;11.604;2022-11-15T00:50:30;94632.38;;;3.90;100.00
13314;BME280;6725;48.112;11.604;2022-11-15T00:52:55;94625.41;;;3.85;100.00
13314;BME280;6725;48.112;11.604;2022-11-15T00:55:21;94623.81;;;3.81;100.00
13314;BME280;6725;48.112;11.604;2022-11-15T00:57:46;94613.03;;;3.77;100.00
13314;BME280;6725;48.112;11.604;2022-11-15T01:00:12;94600.66;;;3.73;100.00
13314;BME280;6725;48.112;11.604;2022-11-15T01:02:37;94589.06;;;3.69;100.00
13314;BME280;6725;48.112;11.604;2022-11-15T01:05:03;94581.34;;;3.64;100.00
13314;BME280;6725;48.112;11.604;2022-11-15T01:07:29;94571.31;;;3.61;100.00
13314;BME280;6725;48.112;11.604;2022-11-15T01:09:54;94561.25;;;3.58;100.00
13314;BME280;6725;48.112;11.604;2022-11-15T01:12:20;94545.81;;;3.54;100.00
13314;BME280;6725;48.112;11.604;2022-11-15T01:14:45;94533.09;;;3.51;100.00
13314;BME280;6725;48.112;11.604;2022-11-15T01:17:10;94487.22;;;3.51;100.00
13314;BME280;6725;48.112;11.604;2022-11-15T01:19:36;94461.38;;;3.47;100.00
13314;BME280;6725;48.112;11.604;2022-11-15T01:22:01;94450.22;;;3.48;100.00
13314;BME280;6725;48.112;11.604;2022-11-15T01:24:27;94427.47;;;3.49;100.00
13314;BME280;6725;48.112;11.604;2022-11-15T01:26:52;94413.59;;;3.54;100.00
13314;BME280;6725;48.112;11.604;2022-11-15T01:29:17;94399.72;;;3.56;100.00
13314;BME280;6725;48.112;11.604;2022-11-15T01:31:43;94393.94;;;3.58;100.00
13314;BME280;6725;48.112;11.604;2022-11-15T01:34:08;94389.31;;;3.62;100.00
13314;BME280;6725;48.112;11.604;2022-11-15T01:36:33;94383.16;;;3.61;100.00
13314;BME280;6725;48.112;11.604;2022-11-15T01:38:59;94375.44;;;3.60;100.00
13314;BME280;6725;48.112;11.604;2022-11-15T01:41:28;94375.44;;;3.60;100.00
13314;BME280;6725;48.112;11.604;2022-11-15T01:43:57;94368.91;;;3.61;100.00
13314;BME280;6725;48.112;11.604;2022-11-15T01:46:35;94373.13;;;3.62;100.00
13314;BME280;6725;48.112;11.604;2022-11-15T01:49:05;94370.06;;;3.60;100.00
13314;BME280;6725;48.112;11.604;2022-11-15T01:51:36;94364.66;;;3.60;100.00
13314;BME280;6725;48.112;11.604;2022-11-15T01:54:07;94371.59;;;3.61;100.00
13314;BME280;6725;48.112;11.604;2022-11-15T01:56:38;94370.81;;;3.57;100.00
13314;BME280;6725;48.112;11.604;2022-11-15T01:59:08;94373.91;;;3.55;100.00
13314;BME280;6725;48.112;11.604;2022-11-15T02:01:34;94376.97;;;3.53;100.00
13314;BME280;6725;48.112;11.604;2022-11-15T02:04:05;94377.34;;;3.52;100.00
13314;BME280;6725;48.112;11.604;2022-11-15T02:06:34;94387.00;;;3.49;100.00
13314;BME280;6725;48.112;11.604;2022-11-15T02:09:01;94390.06;;;3.51;100.00
13314;BME280;6725;48.112;11.604;2022-11-15T02:11:26;94390.06;;;3.51;100.00
13314;BME280;6725;48.112;11.604;2022-11-15T02:13:52;94407.06;;;3.56;100.00
13314;BME280;6725;48.112;11.604;2022-11-15T02:21:36;94450.97;;;3.45;100.00
13314;BME280;6725;48.112;11.604;2022-11-15T02:24:34;94476.38;;;3.37;100.00
13314;BME280;6725;48.112;11.604;2022-11-15T02:27:19;94484.81;;;3.32;100.00
13314;BME280;6725;48.112;11.604;2022-11-15T02:32:44;94484.00;;;3.21;100.00
13314;BME280;6725;48.112;11.604;2022-11-15T02:38:22;94488.63;;;3.17;100.00
13314;BME280;6725;48.112;11.604;2022-11-15T02:40:58;94488.63;;;3.17;100.00
13314;BME280;6725;48.112;11.604;2022-11-15T02:49:15;94482.81;;;3.08;100.00
13314;BME280;6725;48.112;11.604;2022-11-15T02:51:42;94474.72;;;3.08;100.00
13314;BME280;6725;48.112;11.604;2022-11-15T02:54:30;94477.00;;;3.06;100.00
13314;BME280;6725;48.112;11.604;2022-11-15T02:57:01;94485.88;;;3.07;100.00
13314;BME280;6725;48.112;11.604;2022-11-15T03:00:34;94479.69;;;3.06;100.00
13314;BME280;6725;48.112;11.604;2022-11-15T03:05:26;94466.59;;;3.01;100.00
13314;BME280;6725;48.112;11.604;2022-11-15T03:11:03;94466.16;;;2.92;100.00
13314;BME280;6725;48.112;11.604;2022-11-15T03:21:54;94438.34;;;2.81;100.00
13314;BME280;6725;48.112;11.604;2022-11-15T03:24:23;94438.72;;;2.80;100.00
13314;BME280;6725;48.112;11.604;2022-11-15T03:26:51;94412.56;;;2.80;100.00
13314;BME280;6725;48.112;11.604;2022-11-15T03:29:22;94405.22;;;2.77;100.00
13314;BME280;6725;48.112;11.604;2022-11-15T03:31:55;94392.13;;;2.76;100.00
13314;BME280;6725;48.112;11.604;2022-11-15T03:37:06;94380.59;;;2.75;100.00
13314;BME280;6725;48.112;11.604;2022-11-15T03:39:32;94368.25;;;2.74;100.00
13314;BME280;6725;48.112;11.604;2022-11-15T03:44:52;94349.38;;;2.67;100.00
13314;BME280;6725;48.112;11.604;2022-11-15T03:47:32;94346.25;;;2.58;100.00
13314;BME280;6725;48.112;11.604;2022-11-15T03:50:08;94342.34;;;2.52;100.00
13314;BME280;6725;48.112;11.604;2022-11-15T03:52:34;94337.38;;;2.54;100.00
13314;BME280;6725;48.112;11.604;2022-11-15T03:55:01;94327.75;;;2.57;100.00
13314;BME280;6725;48.112;11.604;2022-11-15T03:57:27;94317.41;;;2.62;100.00
13314;BME280;6725;48.112;11.604;2022-11-15T03:59:53;94309.69;;;2.61;100.00
13314;BME280;6725;48.112;11.604;2022-11-15T04:02:18;94315.84;;;2.61;100.00
13314;BME280;6725;48.112;11.604;2022-11-15T04:04:44;94308.94;;;2.60;100.00
13314;BME280;6725;48.112;11.604;2022-11-15T04:07:09;94298.91;;;2.61;100.00
13314;BME280;6725;48.112;11.604;2022-11-15T04:09:34;94295.47;;;2.60;100.00
13314;BME280;6725;48.112;11.604;2022-11-15T04:12:20;94289.28;;;2.63;100.00
13314;BME280;6725;48.112;11.604;2022-11-15T04:15:05;94282.38;;;2.62;100.00
13314;BME280;6725;48.112;11.604;2022-11-15T04:17:35;94298.19;;;2.67;100.00
13314;BME280;6725;48.112;11.604;2022-11-15T04:20:05;94291.25;;;2.73;100.00
13314;BME280;6725;48.112;11.604;2022-11-15T04:22:52;94293.19;;;2.76;100.00
13314;BME280;6725;48.112;11.604;2022-11-15T04:25:36;94295.88;;;2.76;100.00
13314;BME280;6725;48.112;11.604;2022-11-15T04:28:02;94299.38;;;2.77;100.00
13314;BME280;6725;48.112;11.604;2022-11-15T04:30:27;94316.66;;;2.76;100.00
13314;BME280;6725;48.112;11.604;2022-11-15T04:32:52;94319.75;;;2.74;100.00
13314;BME280;6725;48.112;11.604;2022-11-15T04:35:18;94322.06;;;2.72;100.00
13314;BME280;6725;48.112;11.604;2022-11-15T04:37:43;94330.91;;;2.69;100.00
13314;BME280;6725;48.112;11.604;2022-11-15T04:40:08;94342.09;;;2.71;100.00
13314;BME280;6725;48.112;11.604;2022-11-15T04:42:34;94355.56;;;2.71;100.00
13314;BME280;6725;48.112;11.604;2022-11-15T04:44:59;94365.94;;;2.69;100.00
13314;BME280;6725;48.112;11.604;2022-11-15T04:47:24;94391.72;;;2.70;100.00
13314;BME280;6725;48.112;11.604;2022-11-15T04:49:50;94395.19;;;2.71;100.00
13314;BME280;6725;48.112;11.604;2022-11-15T04:52:15;94400.22;;;2.72;100.00
13314;BME280;6725;48.112;11.604;2022-11-15T04:54:40;94409.03;;;2.69;100.00
13314;BME280;6725;48.112;11.604;2022-11-15T04:57:07;94419.81;;;2.69;100.00
13314;BME280;6725;48.112;11.604;2022-11-15T04:59:32;94434.81;;;2.67;100.00
13314;BME280;6725;48.112;11.604;2022-11-15T05:01:58;94434.78;;;2.63;100.00
13314;BME280;6725;48.112;11.604;2022-11-15T05:04:23;94434.03;;;2.63;100.00
13314;BME280;6725;48.112;11.604;2022-11-15T05:06:50;94437.47;;;2.63;100.00
13314;BME280;6725;48.112;11.604;2022-11-15T05:09:17;94430.59;;;2.66;100.00
13314;BME280;6725;48.112;11.604;2022-11-15T05:11:43;94426.72;;;2.63;100.00
13314;BME280;6725;48.112;11.604;2022-11-15T05:14:09;94435.16;;;2.58;100.00
13314;BME280;6725;48.112;11.604;2022-11-15T05:16:35;94430.50;;;2.55;100.00
13314;BME280;6725;48.112;11.604;2022-11-15T05:19:00;94431.28;;;2.56;100.00
13314;BME280;6725;48.112;11.604;2022-11-15T05:21:26;94437.84;;;2.55;100.00
13314;BME280;6725;48.112;11.604;2022-11-15T05:23:51;94439.75;;;2.54;100.00
13314;BME280;6725;48.112;11.604;2022-11-15T05:26:17;94429.72;;;2.51;100.00
13314;BME280;6725;48.112;11.604;2022-11-15T05:28:44;94422.41;;;2.52;100.00
13314;BME280;6725;48.112;11.604;2022-11-15T05:31:13;94431.25;;;2.49;100.00
13314;BME280;6725;48.112;11.604;2022-11-15T05:33:39;94418.94;;;2.51;100.00
13314;BME280;6725;48.112;11.604;2022-11-15T05:38:43;94419.72;;;2.55;100.00
13314;BME280;6725;48.112;11.604;2022-11-15T05:41:09;94413.59;;;2.55;100.00
13314;BME280;6725;48.112;11.604;2022-11-15T05:43:37;94423.56;;;2.51;100.00
13314;BME280;6725;48.112;11.604;2022-11-15T05:46:04;94418.16;;;2.47;100.00
13314;BME280;6725;48.112;11.604;2022-11-15T05:48:30;94408.53;;;2.46;100.00
13314;BME280;6725;48.112;11.604;2022-11-15T05:50:56;94423.16;;;2.49;100.00
13314;BME280;6725;48.112;11.604;2022-11-15T05:53:22;94428.19;;;2.50;100.00
13314;BME280;6725;48.112;11.604;2022-11-15T05:55:49;94429.72;;;2.51;100.00
13314;BME280;6725;48.112;11.604;2022-11-15T05:58:14;94430.50;;;2.55;100.00
13314;BME280;6725;48.112;11.604;2022-11-15T06:00:40;94431.28;;;2.56;100.00
13314;BME280;6725;48.112;11.604;2022-11-15T06:03:05;94433.63;;;2.57;100.00
13314;BME280;6725;48.112;11.604;2022-11-15T06:05:30;94430.88;;;2.54;100.00
13314;BME280;6725;48.112;11.604;2022-11-15T06:07:59;94437.44;;;2.53;100.00
13314;BME280;6725;48.112;11.604;2022-11-15T06:10:25;94438.97;;;2.50;100.00
13314;BME280;6725;48.112;11.604;2022-11-15T06:13:00;94435.06;;;2.44;100.00
13314;BME280;6725;48.112;11.604;2022-11-15T06:15:26;94419.31;;;2.46;100.00
13314;BME280;6725;48.112;11.604;2022-11-15T06:17:52;94425.06;;;2.45;100.00
13314;BME280;6725;48.112;11.604;2022-11-15T06:20:17;94422.00;;;2.50;100.00
13314;BME280;6725;48.112;11.604;2022-11-15T06:22:43;94422.84;;;2.57;100.00
13314;BME280;6725;48.112;11.604;2022-11-15T06:25:08;94424.41;;;2.65;100.00
13314;BME280;6725;48.112;11.604;2022-11-15T06:27:34;94426.75;;;2.70;100.00
13314;BME280;6725;48.112;11.604;2022-11-15T06:29:59;94430.63;;;2.76;100.00
13314;BME280;6725;48.112;11.604;2022-11-15T06:32:24;94433.75;;;2.82;100.00
13314;BME280;6725;48.112;11.604;2022-11-15T06:34:50;94435.75;;;2.95;100.00
13314;BME280;6725;48.112;11.604;2022-11-15T06:37:15;94440.94;;;3.39;100.00
13314;BME280;6725;48.112;11.604;2022-11-15T06:39:40;94456.47;;;4.02;100.00
13314;BME280;6725;48.112;11.604;2022-11-15T06:42:08;94502.06;;;4.70;100.00
13314;BME280;6725;48.112;11.604;2022-11-15T06:44:33;94577.72;;;5.26;100.00
13314;BME280;6725;48.112;11.604;2022-11-15T06:46:58;94671.28;;;5.83;100.00
13314;BME280;6725;48.112;11.604;2022-11-15T06:49:24;94747.69;;;6.71;100.00
13314;BME280;6725;48.112;11.604;2022-11-15T06:51:49;94820.28;;;7.25;100.00
13314;BME280;6725;48.112;11.604;2022-11-15T06:54:14;94878.94;;;7.91;100.00
13314;BME280;6725;48.112;11.604;2022-11-15T06:56:40;94919.53;;;8.16;100.00
13314;BME280;6725;48.112;11.604;2022-11-15T06:59:05;94938.91;;;8.79;100.00
13314;BME280;6725;48.112;11.604;2022-11-15T07:01:30;94950.91;;;9.22;100.00
13314;BME280;6725;48.112;11.604;2022-11-15T07:03:56;94970.06;;;9.52;100.00
13314;BME280;6725;48.112;11.604;2022-11-15T07:06:21;94978.97;;;9.56;100.00
13314;BME280;6725;48.112;11.604;2022-11-15T07:08:46;94983.03;;;9.75;100.00
13314;BME280;6725;48.112;11.604;2022-11-15T07:11:12;94975.41;;;9.59;100.00
13314;BME280;6725;48.112;11.604;2022-11-15T07:13:37;94979.72;;;9.90;100.00
13314;BME280;6725;48.112;11.604;2022-11-15T07:16:08;94977.81;;;10.21;100.00
13314;BME280;6725;48.112;11.604;2022-11-15T07:18:35;94979.88;;;11.13;100.00
13314;BME280;6725;48.112;11.604;2022-11-15T07:21:02;94986.19;;;11.33;100.00
13314;BME280;6725;48.112;11.604;2022-11-15T07:23:27;94979.16;;;11.09;100.00
13314;BME280;6725;48.112;11.604;2022-11-15T07:25:53;94981.78;;;11.16;100.00
13314;BME280;6725;48.112;11.604;2022-11-15T07:28:18;94981.59;;;11.49;100.00
13314;BME280;6725;48.112;11.604;2022-11-15T07:30:43;94986.75;;;11.44;100.00
13314;BME280;6725;48.112;11.604;2022-11-15T07:33:08;94994.88;;;11.90;100.00
13314;BME280;6725;48.112;11.604;2022-11-15T07:35:34;94989.56;;;12.38;100.00
13314;BME280;6725;48.112;11.604;2022-11-15T07:38:01;94988.78;;;12.57;100.00
13314;BME280;6725;48.112;11.604;2022-11-15T07:40:29;94987.00;;;12.31;100.00
13314;BME280;6725;48.112;11.604;2022-11-15T07:43:07;94983.72;;;12.20;100.00
13314;BME280;6725;48.112;11.604;2022-11-15T07:45:33;94982.06;;;12.42;100.00
13314;BME280;6725;48.112;11.604;2022-11-15T07:48:00;94983.31;;;12.73;100.00
13314;BME280;6725;48.112;11.604;2022-11-15T07:50:26;94980.41;;;12.64;100.00
13314;BME280;6725;48.112;11.604;2022-11-15T07:52:55;94981.63;;;12.79;100.00
13314;BME280;6725;48.112;11.604;2022-11-15T07:55:26;94976.22;;;12.91;100.00
13314;BME280;6725;48.112;11.604;2022-11-15T07:57:52;94974.75;;;12.87;100.00
13314;BME280;6725;48.112;11.604;2022-11-15T08:00:18;94968.44;;;13.22;100.00
13314;BME280;6725;48.112;11.604;2022-11-15T08:02:44;94976.28;;;13.36;100.00
13314;BME280;6725;48.112;11.604;2022-11-15T08:05:10;94980.56;;;13.53;100.00
13314;BME280;6725;48.112;11.604;2022-11-15T08:07:35;94975.38;;;13.43;100.00
13314;BME280;6725;48.112;11.604;2022-11-15T08:10:00;94975.94;;;13.50;100.00
13314;BME280;6725;48.112;11.604;2022-11-15T08:12:27;94974.09;;;12.99;100.00
13314;BME280;6725;48.112;11.604;2022-11-15T08:14:54;94963.91;;;13.60;100.00
13314;BME280;6725;48.112;11.604;2022-11-15T08:17:20;94954.03;;;12.86;100.00
13314;BME280;6725;48.112;11.604;2022-11-15T08:19:46;94958.38;;;12.16;100.00
13314;BME280;6725;48.112;11.604;2022-11-15T08:22:11;94947.94;;;12.78;100.00
13314;BME280;6725;48.112;11.604;2022-11-15T08:24:36;94943.75;;;13.38;100.00
13314;BME280;6725;48.112;11.604;2022-11-15T08:27:02;94933.84;;;13.12;100.00
13314;BME280;6725;48.112;11.604;2022-11-15T08:29:27;94923.13;;;13.46;100.00
13314;BME280;6725;48.112;11.604;2022-11-15T08:31:54;94922.84;;;13.85;100.00
13314;BME280;6725;48.112;11.604;2022-11-15T08:34:20;94905.00;;;14.18;100.00
13314;BME280;6725;48.112;11.604;2022-11-15T08:36:45;94900.22;;;13.94;100.00
13314;BME280;6725;48.112;11.604;2022-11-15T08:39:11;94911.72;;;14.67;100.00
13314;BME280;6725;48.112;11.604;2022-11-15T08:41:37;94904.66;;;14.16;100.00
13314;BME280;6725;48.112;11.604;2022-11-15T08:44:03;94910.75;;;14.61;100.00
13314;BME280;6725;48.112;11.604;2022-11-15T08:46:28;94909.53;;;14.87;100.00
13314;BME280;6725;48.112;11.604;2022-11-15T08:48:53;94901.16;;;15.37;100.00
13314;BME280;6725;48.112;11.604;2022-11-15T08:51:19;94913.09;;;15.56;100.00
13314;BME280;6725;48.112;11.604;2022-11-15T08:53:44;94899.13;;;16.15;100.00
13314;BME280;6725;48.112;11.604;2022-11-15T08:56:11;94907.78;;;16.57;100.00
13314;BME280;6725;48.112;11.604;2022-11-15T08:58:37;94906.84;;;16.99;100.00
13314;BME280;6725;48.112;11.604;2022-11-15T09:01:03;94917.19;;;17.26;100.00
13314;BME280;6725;48.112;11.604;2022-11-15T09:03:29;94912.28;;;17.39;100.00
13314;BME280;6725;48.112;11.604;2022-11-15T09:05:59;94904.66;;;17.61;98.77
13314;BME280;6725;48.112;11.604;2022-11-15T09:08:29;94910.34;;;16.91;98.48
13314;BME280;6725;48.112;11.604;2022-11-15T09:10:54;94907.19;;;16.62;97.52
13314;BME280;6725;48.112;11.604;2022-11-15T09:13:20;94904.00;;;17.30;95.11
13314;BME280;6725;48.112;11.604;2022-11-15T09:15:46;94907.56;;;18.02;89.86
13314;BME280;6725;48.112;11.604;2022-11-15T09:18:11;94911.19;;;18.35;82.94
13314;BME280;6725;48.112;11.604;2022-11-15T09:20:37;94902.78;;;18.12;83.31
13314;BME280;6725;48.112;11.604;2022-11-15T09:23:03;94890.22;;;17.75;83.30
13314;BME280;6725;48.112;11.604;2022-11-15T09:25:29;94894.53;;;17.67;82.80
13314;BME280;6725;48.112;11.604;2022-11-15T09:27:58;94896.69;;;17.72;81.98
13314;BME280;6725;48.112;11.604;2022-11-15T09:30:27;94891.31;;;17.50;82.94
13314;BME280;6725;48.112;11.604;2022-11-15T09:32:53;94888.50;;;16.66;86.82
13314;BME280;6725;48.112;11.604;2022-11-15T09:35:18;94888.84;;;15.85;93.91
13314;BME280;6725;48.112;11.604;2022-11-15T09:37:43;94886.31;;;16.21;92.73
13314;BME280;6725;48.112;11.604;2022-11-15T09:40:14;94885.78;;;16.75;90.82
13314;BME280;6725;48.112;11.604;2022-11-15T09:43:04;94877.56;;;17.02;92.30
13314;BME280;6725;48.112;11.604;2022-11-15T09:45:48;94867.59;;;16.95;93.29
13314;BME280;6725;48.112;11.604;2022-11-15T09:48:38;94870.44;;;16.03;94.84
13314;BME280;6725;48.112;11.604;2022-11-15T09:51:14;94864.00;;;15.54;99.25
13314;BME280;6725;48.112;11.604;2022-11-15T09:56:40;94844.84;;;14.24;100.00
13314;BME280;6725;48.112;11.604;2022-11-15T10:05:02;94836.41;;;15.33;100.00
13314;BME280;6725;48.112;11.604;2022-11-15T10:07:37;94847.28;;;15.70;100.00
13314;BME280;6725;48.112;11.604;2022-11-15T10:12:36;94824.56;;;16.09;99.32
13314;BME280;6725;48.112;11.604;2022-11-15T10:15:11;94827.69;;;16.29;95.37
13314;BME280;6725;48.112;11.604;2022-11-15T10:20:51;94824.28;;;16.16;97.38
13314;BME280;6725;48.112;11.604;2022-11-15T10:23:22;94814.66;;;16.21;97.29
13314;BME280;6725;48.112;11.604;2022-11-15T10:25:51;94816.91;;;15.83;99.91
13314;BME280;6725;48.112;11.604;2022-11-15T10:28:37;94807.47;;;15.62;100.00
13314;BME280;6725;48.112;11.604;2022-11-15T10:31:10;94803.25;;;15.49;100.00
13314;BME280;6725;48.112;11.604;2022-11-15T10:33:45;94801.19;;;15.19;100.00
13314;BME280;6725;48.112;11.604;2022-11-15T10:36:22;94802.03;;;14.94;100.00
13314;BME280;6725;48.112;11.604;2022-11-15T10:46:30;94779.13;;;14.29;100.00
13314;BME280;6725;48.112;11.604;2022-11-15T10:51:43;94773.38;;;13.61;100.00
13314;BME280;6725;48.112;11.604;2022-11-15T10:54:10;94765.03;;;13.52;100.00
13314;BME280;6725;48.112;11.604;2022-11-15T10:56:39;94761.97;;;13.50;100.00
13314;BME280;6725;48.112;11.604;2022-11-15T10:59:09;94763.50;;;13.51;100.00
13314;BME280;6725;48.112;11.604;2022-11-15T11:01:46;94756.69;;;13.43;100.00
13314;BME280;6725;48.112;11.604;2022-11-15T11:04:12;94755.13;;;13.29;100.00
13314;BME280;6725;48.112;11.604;2022-11-15T11:06:55;94745.25;;;13.32;100.00
13314;BME280;6725;48.112;11.604;2022-11-15T11:09:34;94742.94;;;13.30;100.00
13314;BME280;6725;48.112;11.604;2022-11-15T11:12:00;94755.09;;;13.17;100.00
13314;BME280;6725;48.112;11.604;2022-11-15T11:14:29;94741.69;;;13.06;100.00
13314;BME280;6725;48.112;11.604;2022-11-15T11:20:40;94733.72;;;12.96;100.00
13314;BME280;6725;48.112;11.604;2022-11-15T11:23:35;94731.41;;;12.94;100.00
13314;BME280;6725;48.112;11.604;2022-11-15T11:28:27;94720.19;;;13.05;100.00
13314;BME280;6725;48.112;11.604;2022-11-15T11:31:20;94724.91;;;13.04;100.00
13314;BME280;6725;48.112;11.604;2022-11-15T11:34:15;94706.16;;;13.03;100.00
13314;BME280;6725;48.112;11.604;2022-11-15T11:36:51;94710.97;;;12.99;100.00
13314;BME280;6725;48.112;11.604;2022-11-15T11:42:34;94713.97;;;13.17;100.00
13314;BME280;6725;48.112;11.604;2022-11-15T11:48:33;94691.28;;;13.29;100.00
13314;BME280;6725;48.112;11.604;2022-11-15T11:50:27;94694.16;;;13.38;100.00
13314;BME280;6725;48.112;11.604;2022-11-15T11:52:57;94694.69;;;13.33;100.00
13314;BME280;6725;48.112;11.604;2022-11-15T11:55:34;94695.38;;;13.37;100.00
13314;BME280;6725;48.112;11.604;2022-11-15T11:58:27;94680.66;;;13.44;100.00
13314;BME280;6725;48.112;11.604;2022-11-15T12:01:12;94680.44;;;13.51;100.00
13314;BME280;6725;48.112;11.604;2022-11-15T12:06:21;94675.50;;;13.58;100.00
13314;BME280;6725;48.112;11.604;2022-11-15T12:08:53;94680.31;;;13.54;100.00
13314;BME280;6725;48.112;11.604;2022-11-15T12:11:40;94666.16;;;13.56;100.00
13314;BME280;6725;48.112;11.604;2022-11-15T12:14:25;94664.19;;;13.69;100.00
13314;BME280;6725;48.112;11.604;2022-11-15T12:16:52;94665.16;;;13.75;100.00
13314;BME280;6725;48.112;11.604;2022-11-15T12:19:17;94654.63;;;13.73;100.00
13314;BME280;6725;48.112;11.604;2022-11-15T12:24:41;94653.00;;;13.76;100.00
13314;BME280;6725;48.112;11.604;2022-11-15T12:27:21;94654.16;;;13.87;100.00
13314;BME280;6725;48.112;11.604;2022-11-15T12:29:56;94651.09;;;13.85;100.00
13314;BME280;6725;48.112;11.604;2022-11-15T12:32:33;94658.53;;;13.97;100.00
13314;BME280;6725;48.112;11.604;2022-11-15T12:35:02;94652.28;;;13.97;100.00
13314;BME280;6725;48.112;11.604;2022-11-15T12:42:39;94642.94;;;13.94;100.00
13314;BME280;6725;48.112;11.604;2022-11-15T12:47:49;94636.88;;;13.99;100.00
13314;BME280;6725;48.112;11.604;2022-11-15T12:50:15;94637.22;;;14.01;100.00
13314;BME280;6725;48.112;11.604;2022-11-15T12:58:49;94631.84;;;14.10;100.00
13314;BME280;6725;48.112;11.604;2022-11-15T13:06:58;94620.06;;;14.22;100.00
13314;BME280;6725;48.112;11.604;2022-11-15T13:12:00;94617.97;;;14.26;100.00
13314;BME280;6725;48.112;11.604;2022-11-15T13:17:23;94620.28;;;14.15;100.00
13314;BME280;6725;48.112;11.604;2022-11-15T13:22:48;94621.06;;;14.16;100.00
13314;BME280;6725;48.112;11.604;2022-11-15T13:27:52;94610.94;;;14.25;100.00
13314;BME280;6725;48.112;11.604;2022-11-15T13:30:22;94607.53;;;14.21;100.00
13314;BME280;6725;48.112;11.604;2022-11-15T13:32:48;94603.59;;;14.22;100.00
13314;BME280;6725;48.112;11.604;2022-11-15T13:35:25;94599.50;;;14.27;100.00
13314;BME280;6725;48.112;11.604;2022-11-15T13:37:52;94602.44;;;14.32;100.00
13314;BME280;6725;48.112;11.604;2022-11-15T13:40:27;94606.13;;;14.38;100.00
13314;BME280;6725;48.112;11.604;2022-11-15T13:42:56;94593.88;;;14.30;100.00
13314;BME280;6725;48.112;11.604;2022-11-15T13:45:22;94600.16;;;14.31;100.00
13314;BME280;6725;48.112;11.604;2022-11-15T13:47:53;94605.88;;;14.24;100.00
13314;BME280;6725;48.112;11.604;2022-11-15T13:50:21;94603.59;;;14.22;100.00
13314;BME280;6725;48.112;11.604;2022-11-15T13:52:48;94595.66;;;14.24;100.00
13314;BME280;6725;48.112;11.604;2022-11-15T13:55:19;94590.38;;;14.17;100.00
13314;BME280;6725;48.112;11.604;2022-11-15T13:58:02;94591.94;;;14.18;100.00
13314;BME280;6725;48.112;11.604;2022-11-15T14:00:44;94588.53;;;14.14;100.00
13314;BME280;6725;48.112;11.604;2022-11-15T14:03:28;94591.63;;;14.04;100.00
13314;BME280;6725;48.112;11.604;2022-11-15T14:06:10;94594.81;;;14.02;100.00
13314;BME280;6725;48.112;11.604;2022-11-15T14:08:41;94604.28;;;14.01;100.00
13314;BME280;6725;48.112;11.604;2022-11-15T14:11:12;94602.13;;;13.96;100.00
13314;BME280;6725;48.112;11.604;2022-11-15T14:13:38;94602.41;;;13.98;100.00
13314;BME280;6725;48.112;11.604;2022-11-15T14:16:15;94606.03;;;13.95;100.00
13314;BME280;6725;48.112;11.604;2022-11-15T14:18:47;94603.63;;;13.97;100.00
13314;BME280;6725;48.112;11.604;2022-11-15T14:21:12;94598.16;;;13.97;100.00
13314;BME280;6725;48.112;11.604;2022-11-15T14:23:38;94603.63;;;13.97;100.00
13314;BME280;6725;48.112;11.604;2022-11-15T14:26:04;94604.53;;;13.94;100.00
13314;BME280;6725;48.112;11.604;2022-11-15T14:28:32;94608.47;;;13.93;100.00
13314;BME280;6725;48.112;11.604;2022-11-15T14:31:01;94604.53;;;13.94;100.00
13314;BME280;6725;48.112;11.604;2022-11-15T14:33:37;94603.66;;;13.85;100.00
13314;BME280;6725;48.112;11.604;2022-11-15T14:36:20;94604.88;;;13.84;100.00
13314;BME280;6725;48.112;11.604;2022-11-15T14:38:46;94603.47;;;13.79;100.00
13314;BME280;6725;48.112;11.604;2022-11-15T14:41:24;94609.53;;;13.74;100.00
13314;BME280;6725;48.112;11.604;2022-11-15T14:43:52;94614.03;;;13.68;100.00
13314;BME280;6725;48.112;11.604;2022-11-15T14:46:18;94609.97;;;13.60;100.00
13314;BME280;6725;48.112;11.604;2022-11-15T14:48:44;94606.69;;;13.53;100.00
13314;BME280;6725;48.112;11.604;2022-11-15T14:51:14;94600.25;;;13.47;100.00
13314;BME280;6725;48.112;11.604;2022-11-15T14:53:42;94603.09;;;13.43;100.00
13314;BME280;6725;48.112;11.604;2022-11-15T14:56:09;94601.00;;;13.34;100.00
13314;BME280;6725;48.112;11.604;2022-11-15T14:58:35;94605.97;;;13.27;100.00